EJA891 KDAL-KHSV
Flight info
| Callsign | EJA891 |
|---|---|
| Flight time | 1h 29m |
| Altitude | 35000 |
| Route | LNDRE5 LOOSE |
| Aircraft | C700/M-SBDGHM1RWXY/LB2 |
Departure
| Time | 2026-04-22 19:42 |
|---|---|
| Airport | Dallas Love Field (KDAL) |
Arrival
| Time | 2026-04-22 21:11 |
|---|---|
| Airport | Huntsville International Airport (KHSV) |
| Time | Latitude | Longitude | Altitude | Speed | Heading |
|---|---|---|---|---|---|
| 2026-04-22 19:20 | 32.84535 | -96.83982 | 491 ft | 0 kts | 42° |
| 2026-04-22 19:33 | 32.84540 | -96.83981 | 488 ft | 2 kts | 9° |
| 2026-04-22 19:33 | 32.84572 | -96.84017 | 487 ft | 10 kts | 312° |
| 2026-04-22 19:33 | 32.84577 | -96.84096 | 490 ft | 11 kts | 233° |
| 2026-04-22 19:34 | 32.84585 | -96.84174 | 487 ft | 11 kts | 316° |
| 2026-04-22 19:34 | 32.84654 | -96.84252 | 490 ft | 18 kts | 316° |
| 2026-04-22 19:34 | 32.84753 | -96.84368 | 487 ft | 22 kts | 315° |
| 2026-04-22 19:34 | 32.84860 | -96.84492 | 485 ft | 21 kts | 316° |
| 2026-04-22 19:35 | 32.84967 | -96.84615 | 484 ft | 22 kts | 315° |
| 2026-04-22 19:35 | 32.85072 | -96.84738 | 485 ft | 21 kts | 315° |
| 2026-04-22 19:35 | 32.85142 | -96.84820 | 486 ft | 21 kts | 316° |
| 2026-04-22 19:35 | 32.85283 | -96.84983 | 482 ft | 21 kts | 315° |
| 2026-04-22 19:36 | 32.85390 | -96.85107 | 485 ft | 21 kts | 317° |
| 2026-04-22 19:36 | 32.85501 | -96.85225 | 483 ft | 21 kts | 315° |
| 2026-04-22 19:36 | 32.85609 | -96.85350 | 481 ft | 22 kts | 316° |
| 2026-04-22 19:36 | 32.85693 | -96.85447 | 476 ft | 11 kts | 315° |
| 2026-04-22 19:37 | 32.85742 | -96.85505 | 480 ft | 7 kts | 316° |
| 2026-04-22 19:37 | 32.85757 | -96.85522 | 480 ft | 0 kts | 315° |
| 2026-04-22 19:39 | 32.85776 | -96.85547 | 475 ft | 8 kts | 304° |
| 2026-04-22 19:39 | 32.85765 | -96.85617 | 479 ft | 10 kts | 229° |
| 2026-04-22 19:39 | 32.85707 | -96.85648 | 480 ft | 9 kts | 160° |
| 2026-04-22 19:40 | 32.85691 | -96.85632 | 483 ft | 0 kts | 137° |
| 2026-04-22 19:40 | 32.85689 | -96.85630 | 483 ft | 6 kts | 137° |
| 2026-04-22 19:41 | 32.85687 | -96.85628 | 483 ft | 0 kts | 137° |
| 2026-04-22 19:41 | 32.85670 | -96.85609 | 483 ft | 27 kts | 137° |
| 2026-04-22 19:41 | 32.85280 | -96.85156 | 491 ft | 125 kts | 135° |
| 2026-04-22 19:41 | 32.84513 | -96.84264 | 896 ft | 174 kts | 137° |
| 2026-04-22 19:42 | 32.83547 | -96.83293 | 1827 ft | 202 kts | 141° |
| 2026-04-22 19:42 | 32.82466 | -96.82098 | 3079 ft | 221 kts | 138° |
| 2026-04-22 19:42 | 32.81292 | -96.80790 | 4338 ft | 244 kts | 140° |
| 2026-04-22 19:42 | 32.79980 | -96.79386 | 5646 ft | 266 kts | 140° |
| 2026-04-22 19:43 | 32.77509 | -96.76748 | 5996 ft | 271 kts | 140° |
| 2026-04-22 19:43 | 32.76131 | -96.75263 | 5997 ft | 266 kts | 140° |
| 2026-04-22 19:43 | 32.74780 | -96.73703 | 6427 ft | 274 kts | 138° |
| 2026-04-22 19:44 | 32.73378 | -96.72091 | 7789 ft | 291 kts | 139° |
| 2026-04-22 19:44 | 32.71902 | -96.70396 | 7982 ft | 295 kts | 138° |
| 2026-04-22 19:44 | 32.70448 | -96.68696 | 8015 ft | 291 kts | 135° |
| 2026-04-22 19:44 | 32.69279 | -96.66756 | 8012 ft | 288 kts | 120° |
| 2026-04-22 19:45 | 32.68532 | -96.64542 | 8012 ft | 290 kts | 107° |
| 2026-04-22 19:45 | 32.68244 | -96.62195 | 8017 ft | 293 kts | 93° |
| 2026-04-22 19:45 | 32.68210 | -96.59762 | 8021 ft | 295 kts | 92° |
| 2026-04-22 19:45 | 32.68207 | -96.57336 | 8020 ft | 295 kts | 86° |
| 2026-04-22 19:46 | 32.68670 | -96.54964 | 8023 ft | 296 kts | 70° |
| 2026-04-22 19:46 | 32.69620 | -96.52800 | 8026 ft | 297 kts | 55° |
| 2026-04-22 19:46 | 32.70999 | -96.50989 | 8028 ft | 296 kts | 40° |
| 2026-04-22 19:46 | 32.72635 | -96.49457 | 8676 ft | 298 kts | 37° |
| 2026-04-22 19:47 | 32.74260 | -96.47924 | 10438 ft | 298 kts | 37° |
| 2026-04-22 19:47 | 32.75960 | -96.46321 | 11519 ft | 326 kts | 36° |
| 2026-04-22 19:47 | 32.77172 | -96.45184 | 12158 ft | 345 kts | 36° |
| 2026-04-22 19:47 | 32.79797 | -96.42716 | 13769 ft | 367 kts | 36° |
| 2026-04-22 19:48 | 32.81810 | -96.40813 | 15197 ft | 374 kts | 37° |
| 2026-04-22 19:48 | 32.83878 | -96.38863 | 16510 ft | 383 kts | 36° |
| 2026-04-22 19:48 | 32.85991 | -96.36873 | 17805 ft | 391 kts | 37° |
| 2026-04-22 19:48 | 32.88067 | -96.34726 | 18961 ft | 401 kts | 45° |
| 2026-04-22 19:49 | 32.89809 | -96.32091 | 20094 ft | 409 kts | 56° |
| 2026-04-22 19:49 | 32.91125 | -96.29057 | 21184 ft | 417 kts | 67° |
| 2026-04-22 19:49 | 32.92174 | -96.25805 | 22211 ft | 424 kts | 68° |
| 2026-04-22 19:49 | 32.93241 | -96.22495 | 23250 ft | 431 kts | 68° |
| 2026-04-22 19:50 | 32.94330 | -96.19154 | 24191 ft | 436 kts | 68° |
| 2026-04-22 19:50 | 32.95432 | -96.15762 | 25103 ft | 442 kts | 68° |
| 2026-04-22 19:50 | 32.96538 | -96.12331 | 26006 ft | 447 kts | 68° |
| 2026-04-22 19:50 | 32.97661 | -96.08853 | 26857 ft | 452 kts | 68° |
| 2026-04-22 19:51 | 32.98796 | -96.05338 | 27715 ft | 456 kts | 68° |
| 2026-04-22 19:51 | 32.99925 | -96.01842 | 28554 ft | 461 kts | 69° |
| 2026-04-22 19:51 | 33.01081 | -95.98252 | 29383 ft | 466 kts | 69° |
| 2026-04-22 19:51 | 33.02249 | -95.94619 | 30207 ft | 471 kts | 69° |
| 2026-04-22 19:52 | 33.03427 | -95.90954 | 30915 ft | 476 kts | 69° |
| 2026-04-22 19:52 | 33.04610 | -95.87270 | 31813 ft | 473 kts | 69° |
| 2026-04-22 19:52 | 33.05776 | -95.83632 | 32858 ft | 468 kts | 70° |
| 2026-04-22 19:52 | 33.06936 | -95.80016 | 33892 ft | 464 kts | 70° |
| 2026-04-22 19:53 | 33.08089 | -95.76436 | 34759 ft | 461 kts | 70° |
| 2026-04-22 19:53 | 33.09240 | -95.72849 | 35033 ft | 469 kts | 70° |
| 2026-04-22 19:53 | 33.11543 | -95.65652 | 35038 ft | 457 kts | 70° |
| 2026-04-22 19:54 | 33.13812 | -95.58548 | 35039 ft | 461 kts | 70° |
| 2026-04-22 19:54 | 33.16095 | -95.51387 | 35038 ft | 459 kts | 70° |
| 2026-04-22 19:55 | 33.18351 | -95.44292 | 35033 ft | 457 kts | 71° |
| 2026-04-22 19:55 | 33.20598 | -95.37206 | 35026 ft | 461 kts | 71° |
| 2026-04-22 19:56 | 33.22863 | -95.30054 | 35027 ft | 459 kts | 71° |
| 2026-04-22 19:56 | 33.24732 | -95.24134 | 35013 ft | 457 kts | 71° |
| 2026-04-22 19:57 | 33.26971 | -95.17033 | 35015 ft | 455 kts | 71° |
| 2026-04-22 19:57 | 33.29200 | -95.09941 | 35012 ft | 456 kts | 71° |
| 2026-04-22 19:58 | 33.31438 | -95.02811 | 35020 ft | 458 kts | 71° |
| 2026-04-22 19:58 | 33.33658 | -94.95718 | 35016 ft | 457 kts | 71° |
| 2026-04-22 20:00 | 33.41382 | -94.70906 | 35105 ft | 455 kts | 71° |
| 2026-04-22 20:01 | 33.43577 | -94.63823 | 35102 ft | 451 kts | 71° |
| 2026-04-22 20:01 | 33.45743 | -94.56809 | 35107 ft | 453 kts | 71° |
| 2026-04-22 20:02 | 33.47932 | -94.49711 | 35108 ft | 455 kts | 71° |
| 2026-04-22 20:02 | 33.50126 | -94.42578 | 35108 ft | 456 kts | 71° |
| 2026-04-22 20:03 | 33.52306 | -94.35471 | 35111 ft | 453 kts | 71° |
| 2026-04-22 20:03 | 33.54472 | -94.28395 | 35119 ft | 452 kts | 71° |
| 2026-04-22 20:04 | 33.56619 | -94.21295 | 35123 ft | 454 kts | 72° |
| 2026-04-22 20:04 | 33.58720 | -94.14198 | 35129 ft | 455 kts | 71° |
| 2026-04-22 20:05 | 33.60859 | -94.07040 | 35132 ft | 456 kts | 71° |
| 2026-04-22 20:05 | 33.62980 | -93.99881 | 35131 ft | 454 kts | 71° |
| 2026-04-22 20:06 | 33.65090 | -93.92763 | 35128 ft | 451 kts | 71° |
| 2026-04-22 20:06 | 33.67189 | -93.85652 | 35123 ft | 453 kts | 71° |
| 2026-04-22 20:07 | 33.69300 | -93.78492 | 35126 ft | 456 kts | 71° |
| 2026-04-22 20:07 | 33.71411 | -93.71315 | 35121 ft | 454 kts | 71° |
| 2026-04-22 20:08 | 33.73502 | -93.64183 | 35126 ft | 452 kts | 71° |
| 2026-04-22 20:08 | 33.75592 | -93.57038 | 35129 ft | 455 kts | 71° |
| 2026-04-22 20:09 | 33.77692 | -93.49842 | 35135 ft | 456 kts | 71° |
| 2026-04-22 20:09 | 33.79784 | -93.42656 | 35142 ft | 454 kts | 71° |
| 2026-04-22 20:10 | 33.81860 | -93.35506 | 35142 ft | 452 kts | 71° |
| 2026-04-22 20:10 | 33.83931 | -93.28354 | 35149 ft | 455 kts | 71° |
| 2026-04-22 20:11 | 33.86002 | -93.21190 | 35152 ft | 456 kts | 71° |
| 2026-04-22 20:11 | 33.88077 | -93.13992 | 35150 ft | 454 kts | 71° |
| 2026-04-22 20:12 | 33.89904 | -93.06754 | 35151 ft | 451 kts | 81° |
| 2026-04-22 20:12 | 33.90965 | -92.99281 | 35159 ft | 455 kts | 81° |
| 2026-04-22 20:13 | 33.92048 | -92.91784 | 35159 ft | 453 kts | 81° |
| 2026-04-22 20:13 | 33.93105 | -92.84317 | 35155 ft | 451 kts | 81° |
| 2026-04-22 20:14 | 33.94161 | -92.76901 | 35158 ft | 454 kts | 81° |
| 2026-04-22 20:14 | 33.95219 | -92.69391 | 35158 ft | 455 kts | 81° |
| 2026-04-22 20:15 | 33.96274 | -92.61892 | 35159 ft | 452 kts | 81° |
| 2026-04-22 20:15 | 33.97316 | -92.54434 | 35150 ft | 452 kts | 81° |
| 2026-04-22 20:16 | 33.98359 | -92.46947 | 35160 ft | 453 kts | 81° |
| 2026-04-22 20:16 | 33.99399 | -92.39441 | 35160 ft | 455 kts | 81° |
| 2026-04-22 20:17 | 34.00439 | -92.31906 | 35157 ft | 456 kts | 81° |
| 2026-04-22 20:17 | 34.01478 | -92.24339 | 35154 ft | 458 kts | 81° |
| 2026-04-22 20:18 | 34.02514 | -92.16753 | 35154 ft | 459 kts | 81° |
| 2026-04-22 20:18 | 34.03540 | -92.09211 | 35150 ft | 457 kts | 80° |
| 2026-04-22 20:19 | 34.04561 | -92.01668 | 35146 ft | 455 kts | 80° |
| 2026-04-22 20:19 | 34.05584 | -91.94076 | 35146 ft | 460 kts | 80° |
| 2026-04-22 20:20 | 34.06599 | -91.86504 | 35150 ft | 459 kts | 80° |
| 2026-04-22 20:20 | 34.07612 | -91.78917 | 35150 ft | 456 kts | 80° |
| 2026-04-22 20:21 | 34.08616 | -91.71350 | 35153 ft | 458 kts | 80° |
| 2026-04-22 20:21 | 34.09624 | -91.63730 | 35157 ft | 461 kts | 80° |
| 2026-04-22 20:22 | 34.10626 | -91.56102 | 35164 ft | 459 kts | 80° |
| 2026-04-22 20:22 | 34.11622 | -91.48497 | 35174 ft | 458 kts | 79° |
| 2026-04-22 20:23 | 34.12609 | -91.40917 | 35175 ft | 457 kts | 80° |
| 2026-04-22 20:23 | 34.13590 | -91.33348 | 35172 ft | 461 kts | 80° |
| 2026-04-22 20:24 | 34.14577 | -91.25682 | 35181 ft | 461 kts | 80° |
| 2026-04-22 20:24 | 34.15558 | -91.18043 | 35175 ft | 459 kts | 80° |
| 2026-04-22 20:25 | 34.16528 | -91.10432 | 35172 ft | 458 kts | 80° |
| 2026-04-22 20:25 | 34.17499 | -91.02789 | 35168 ft | 462 kts | 80° |
| 2026-04-22 20:26 | 34.18471 | -90.95099 | 35168 ft | 464 kts | 80° |
| 2026-04-22 20:26 | 34.18955 | -90.91251 | 35043 ft | 465 kts | 80° |
| 2026-04-22 20:26 | 34.19441 | -90.87370 | 34561 ft | 466 kts | 80° |
| 2026-04-22 20:26 | 34.19922 | -90.83526 | 34150 ft | 460 kts | 80° |
| 2026-04-22 20:27 | 34.20397 | -90.79724 | 33750 ft | 457 kts | 80° |
| 2026-04-22 20:27 | 34.20874 | -90.75895 | 33353 ft | 462 kts | 80° |
| 2026-04-22 20:27 | 34.21354 | -90.72034 | 32963 ft | 466 kts | 80° |
| 2026-04-22 20:27 | 34.21833 | -90.68158 | 32584 ft | 466 kts | 80° |
| 2026-04-22 20:28 | 34.22305 | -90.64339 | 32214 ft | 465 kts | 80° |
| 2026-04-22 20:28 | 34.22782 | -90.60479 | 31842 ft | 464 kts | 80° |
| 2026-04-22 20:28 | 34.23256 | -90.56617 | 31472 ft | 466 kts | 80° |
| 2026-04-22 20:28 | 34.23732 | -90.52734 | 31112 ft | 468 kts | 80° |
| 2026-04-22 20:29 | 34.24209 | -90.48829 | 30758 ft | 471 kts | 80° |
| 2026-04-22 20:29 | 34.24687 | -90.44904 | 30407 ft | 472 kts | 80° |
| 2026-04-22 20:29 | 34.25164 | -90.40988 | 30033 ft | 469 kts | 80° |
| 2026-04-22 20:29 | 34.25634 | -90.37099 | 29615 ft | 463 kts | 80° |
| 2026-04-22 20:30 | 34.26097 | -90.33268 | 29211 ft | 459 kts | 80° |
| 2026-04-22 20:30 | 34.26559 | -90.29447 | 28813 ft | 459 kts | 80° |
| 2026-04-22 20:30 | 34.27018 | -90.25627 | 28417 ft | 458 kts | 80° |
| 2026-04-22 20:30 | 34.27475 | -90.21814 | 28028 ft | 458 kts | 80° |
| 2026-04-22 20:31 | 34.27923 | -90.18068 | 27654 ft | 455 kts | 80° |
| 2026-04-22 20:31 | 34.28373 | -90.14300 | 27275 ft | 451 kts | 80° |
| 2026-04-22 20:31 | 34.28818 | -90.10556 | 26898 ft | 449 kts | 80° |
| 2026-04-22 20:31 | 34.29259 | -90.06837 | 26532 ft | 446 kts | 80° |
| 2026-04-22 20:32 | 34.29699 | -90.03128 | 26163 ft | 444 kts | 80° |
| 2026-04-22 20:32 | 34.30138 | -89.99416 | 25801 ft | 445 kts | 80° |
| 2026-04-22 20:32 | 34.30573 | -89.95712 | 25446 ft | 445 kts | 81° |
| 2026-04-22 20:32 | 34.31007 | -89.92013 | 25101 ft | 443 kts | 81° |
| 2026-04-22 20:33 | 34.31438 | -89.88329 | 24751 ft | 441 kts | 81° |
| 2026-04-22 20:33 | 34.31867 | -89.84658 | 24409 ft | 438 kts | 81° |
| 2026-04-22 20:33 | 34.32291 | -89.81016 | 24070 ft | 437 kts | 81° |
| 2026-04-22 20:33 | 34.32712 | -89.77390 | 23733 ft | 435 kts | 81° |
| 2026-04-22 20:34 | 34.33133 | -89.73774 | 23336 ft | 433 kts | 81° |
| 2026-04-22 20:34 | 34.33549 | -89.70169 | 22959 ft | 432 kts | 81° |
| 2026-04-22 20:34 | 34.33962 | -89.66572 | 22571 ft | 430 kts | 81° |
| 2026-04-22 20:34 | 34.34372 | -89.63001 | 22186 ft | 427 kts | 81° |
| 2026-04-22 20:35 | 34.34778 | -89.59463 | 21801 ft | 423 kts | 81° |
| 2026-04-22 20:35 | 34.35176 | -89.55999 | 21508 ft | 419 kts | 81° |
| 2026-04-22 20:35 | 34.35574 | -89.52511 | 21227 ft | 417 kts | 81° |
| 2026-04-22 20:35 | 34.35970 | -89.49034 | 20956 ft | 418 kts | 81° |
| 2026-04-22 20:36 | 34.36363 | -89.45553 | 20687 ft | 417 kts | 81° |
| 2026-04-22 20:36 | 34.36755 | -89.42092 | 20420 ft | 413 kts | 81° |
| 2026-04-22 20:36 | 34.37142 | -89.38665 | 20150 ft | 410 kts | 81° |
| 2026-04-22 20:36 | 34.37526 | -89.35256 | 19885 ft | 408 kts | 81° |
| 2026-04-22 20:37 | 34.37908 | -89.31856 | 19622 ft | 408 kts | 81° |
| 2026-04-22 20:37 | 34.38289 | -89.28450 | 19369 ft | 408 kts | 81° |
| 2026-04-22 20:37 | 34.38669 | -89.25056 | 19104 ft | 406 kts | 81° |
| 2026-04-22 20:37 | 34.39045 | -89.21683 | 18853 ft | 403 kts | 81° |
| 2026-04-22 20:38 | 34.39417 | -89.18326 | 18599 ft | 401 kts | 81° |
| 2026-04-22 20:38 | 34.39789 | -89.14987 | 18329 ft | 400 kts | 81° |
| 2026-04-22 20:38 | 34.40158 | -89.11653 | 18042 ft | 399 kts | 81° |
| 2026-04-22 20:38 | 34.40522 | -89.08334 | 17753 ft | 396 kts | 81° |
| 2026-04-22 20:39 | 34.40885 | -89.05038 | 17470 ft | 393 kts | 81° |
| 2026-04-22 20:39 | 34.41241 | -89.01806 | 17193 ft | 391 kts | 81° |
| 2026-04-22 20:39 | 34.41598 | -88.98549 | 16913 ft | 389 kts | 81° |
| 2026-04-22 20:39 | 34.41950 | -88.95308 | 16636 ft | 387 kts | 81° |
| 2026-04-22 20:40 | 34.42302 | -88.92080 | 16360 ft | 385 kts | 81° |
| 2026-04-22 20:40 | 34.42652 | -88.88871 | 16090 ft | 383 kts | 81° |
| 2026-04-22 20:40 | 34.42881 | -88.86758 | 15911 ft | 382 kts | 81° |
| 2026-04-22 20:40 | 34.43340 | -88.82505 | 15568 ft | 379 kts | 81° |
| 2026-04-22 20:41 | 34.43681 | -88.79345 | 15326 ft | 376 kts | 81° |
| 2026-04-22 20:41 | 34.44015 | -88.76257 | 15089 ft | 373 kts | 81° |
| 2026-04-22 20:41 | 34.44349 | -88.73144 | 14853 ft | 371 kts | 81° |
| 2026-04-22 20:41 | 34.44679 | -88.70053 | 14616 ft | 369 kts | 81° |
| 2026-04-22 20:42 | 34.45009 | -88.66970 | 14381 ft | 367 kts | 81° |
| 2026-04-22 20:42 | 34.45336 | -88.63908 | 14148 ft | 366 kts | 81° |
| 2026-04-22 20:42 | 34.45551 | -88.61888 | 13991 ft | 364 kts | 81° |
| 2026-04-22 20:42 | 34.45873 | -88.58850 | 13735 ft | 363 kts | 82° |
| 2026-04-22 20:43 | 34.46195 | -88.55819 | 13467 ft | 362 kts | 82° |
| 2026-04-22 20:43 | 34.46513 | -88.52798 | 13205 ft | 361 kts | 82° |
| 2026-04-22 20:43 | 34.46831 | -88.49778 | 12943 ft | 361 kts | 82° |
| 2026-04-22 20:43 | 34.47149 | -88.46762 | 12697 ft | 360 kts | 83° |
| 2026-04-22 20:44 | 34.47464 | -88.43760 | 12468 ft | 358 kts | 83° |
| 2026-04-22 20:44 | 34.47775 | -88.40771 | 12239 ft | 358 kts | 83° |
| 2026-04-22 20:44 | 34.48088 | -88.37777 | 12013 ft | 358 kts | 84° |
| 2026-04-22 20:44 | 34.48398 | -88.34821 | 11788 ft | 357 kts | 84° |
| 2026-04-22 20:45 | 34.48707 | -88.31836 | 11565 ft | 356 kts | 84° |
| 2026-04-22 20:45 | 34.49013 | -88.28891 | 11345 ft | 344 kts | 85° |
| 2026-04-22 20:45 | 34.49303 | -88.26107 | 11113 ft | 322 kts | 85° |
| 2026-04-22 20:45 | 34.49573 | -88.23492 | 10881 ft | 303 kts | 85° |
| 2026-04-22 20:46 | 34.50072 | -88.18596 | 10438 ft | 287 kts | 85° |
| 2026-04-22 20:46 | 34.50321 | -88.16177 | 10245 ft | 292 kts | 85° |
| 2026-04-22 20:46 | 34.50568 | -88.13759 | 10055 ft | 294 kts | 85° |
| 2026-04-22 20:47 | 34.50818 | -88.11306 | 9847 ft | 293 kts | 85° |
| 2026-04-22 20:47 | 34.51068 | -88.08861 | 9635 ft | 291 kts | 86° |
| 2026-04-22 20:47 | 34.51315 | -88.06435 | 9426 ft | 289 kts | 86° |
| 2026-04-22 20:47 | 34.51559 | -88.04023 | 9217 ft | 289 kts | 85° |
| 2026-04-22 20:48 | 34.51804 | -88.01605 | 9014 ft | 290 kts | 85° |
| 2026-04-22 20:48 | 34.52050 | -87.99168 | 8807 ft | 290 kts | 85° |
| 2026-04-22 20:48 | 34.52295 | -87.96747 | 8603 ft | 288 kts | 85° |
| 2026-04-22 20:48 | 34.52538 | -87.94340 | 8405 ft | 286 kts | 85° |
| 2026-04-22 20:49 | 34.52778 | -87.91942 | 8219 ft | 286 kts | 85° |
| 2026-04-22 20:49 | 34.53019 | -87.89549 | 8045 ft | 286 kts | 85° |
| 2026-04-22 20:49 | 34.53258 | -87.87153 | 7872 ft | 287 kts | 85° |
| 2026-04-22 20:49 | 34.53499 | -87.84749 | 7702 ft | 287 kts | 85° |
| 2026-04-22 20:50 | 34.53739 | -87.82346 | 7529 ft | 287 kts | 85° |
| 2026-04-22 20:50 | 34.53973 | -87.79974 | 7361 ft | 286 kts | 85° |
| 2026-04-22 20:50 | 34.54212 | -87.77580 | 7188 ft | 285 kts | 85° |
| 2026-04-22 20:50 | 34.54450 | -87.75187 | 7024 ft | 285 kts | 85° |
| 2026-04-22 20:51 | 34.54685 | -87.72796 | 6855 ft | 285 kts | 85° |
| 2026-04-22 20:51 | 34.54921 | -87.70403 | 6683 ft | 284 kts | 85° |
| 2026-04-22 20:51 | 34.55154 | -87.68051 | 6516 ft | 284 kts | 85° |
| 2026-04-22 20:51 | 34.55387 | -87.65675 | 6331 ft | 283 kts | 85° |
| 2026-04-22 20:52 | 34.55617 | -87.63301 | 6162 ft | 283 kts | 85° |
| 2026-04-22 20:52 | 34.55851 | -87.60933 | 6013 ft | 282 kts | 85° |
| 2026-04-22 20:52 | 34.56085 | -87.58577 | 5886 ft | 280 kts | 85° |
| 2026-04-22 20:52 | 34.56310 | -87.56232 | 5769 ft | 280 kts | 85° |
| 2026-04-22 20:53 | 34.56537 | -87.53886 | 5637 ft | 280 kts | 85° |
| 2026-04-22 20:53 | 34.56768 | -87.51537 | 5509 ft | 280 kts | 85° |
| 2026-04-22 20:53 | 34.56995 | -87.49203 | 5389 ft | 277 kts | 85° |
| 2026-04-22 20:53 | 34.57216 | -87.46872 | 5262 ft | 278 kts | 85° |
| 2026-04-22 20:54 | 34.57442 | -87.44542 | 5142 ft | 278 kts | 85° |
| 2026-04-22 20:54 | 34.57665 | -87.42238 | 5008 ft | 278 kts | 85° |
| 2026-04-22 20:54 | 34.57890 | -87.39911 | 4889 ft | 277 kts | 85° |
| 2026-04-22 20:54 | 34.58112 | -87.37583 | 4777 ft | 278 kts | 85° |
| 2026-04-22 20:55 | 34.58339 | -87.35252 | 4649 ft | 278 kts | 85° |
| 2026-04-22 20:55 | 34.58560 | -87.32929 | 4513 ft | 276 kts | 85° |
| 2026-04-22 20:55 | 34.58776 | -87.30625 | 4397 ft | 275 kts | 85° |
| 2026-04-22 20:55 | 34.58996 | -87.28309 | 4267 ft | 276 kts | 85° |
| 2026-04-22 20:56 | 34.59217 | -87.25996 | 4157 ft | 276 kts | 85° |
| 2026-04-22 20:56 | 34.59436 | -87.23688 | 4024 ft | 275 kts | 84° |
| 2026-04-22 20:56 | 34.59653 | -87.21392 | 3907 ft | 273 kts | 84° |
| 2026-04-22 20:56 | 34.59874 | -87.19102 | 3790 ft | 273 kts | 85° |
| 2026-04-22 20:57 | 34.60087 | -87.16801 | 3663 ft | 274 kts | 85° |
| 2026-04-22 20:57 | 34.60298 | -87.14509 | 3544 ft | 273 kts | 85° |
| 2026-04-22 20:57 | 34.60513 | -87.12208 | 3426 ft | 275 kts | 85° |
| 2026-04-22 20:57 | 34.60734 | -87.09903 | 3301 ft | 274 kts | 84° |
| 2026-04-22 20:58 | 34.60950 | -87.07618 | 3173 ft | 272 kts | 85° |
| 2026-04-22 20:58 | 34.61160 | -87.05348 | 3046 ft | 269 kts | 85° |
| 2026-04-22 20:58 | 34.61366 | -87.03091 | 2986 ft | 267 kts | 85° |
| 2026-04-22 20:58 | 34.61574 | -87.00871 | 2984 ft | 259 kts | 84° |
| 2026-04-22 20:59 | 34.61771 | -86.98785 | 3000 ft | 248 kts | 85° |
| 2026-04-22 20:59 | 34.62059 | -86.96765 | 2983 ft | 237 kts | 69° |
| 2026-04-22 20:59 | 34.63055 | -86.95285 | 2988 ft | 224 kts | 30° |
| 2026-04-22 20:59 | 34.64512 | -86.94771 | 2970 ft | 219 kts | 4° |
| 2026-04-22 21:00 | 34.66032 | -86.94657 | 2981 ft | 217 kts | 1° |
| 2026-04-22 21:00 | 34.67518 | -86.94565 | 2974 ft | 213 kts | 1° |
| 2026-04-22 21:00 | 34.69002 | -86.94457 | 2967 ft | 211 kts | 1° |
| 2026-04-22 21:00 | 34.70487 | -86.94356 | 2976 ft | 217 kts | 2° |
| 2026-04-22 21:01 | 34.71999 | -86.94247 | 2970 ft | 216 kts | 1° |
| 2026-04-22 21:01 | 34.73433 | -86.94160 | 2973 ft | 196 kts | 1° |
| 2026-04-22 21:01 | 34.74742 | -86.94078 | 2952 ft | 181 kts | 1° |
| 2026-04-22 21:01 | 34.75961 | -86.93998 | 2956 ft | 170 kts | 0° |
| 2026-04-22 21:02 | 34.77165 | -86.93921 | 2968 ft | 174 kts | 360° |
| 2026-04-22 21:02 | 34.78375 | -86.93837 | 2973 ft | 173 kts | 1° |
| 2026-04-22 21:02 | 34.79599 | -86.93745 | 2962 ft | 176 kts | 1° |
| 2026-04-22 21:02 | 34.80815 | -86.93654 | 2960 ft | 176 kts | 1° |
| 2026-04-22 21:03 | 34.82050 | -86.93559 | 2968 ft | 178 kts | 1° |
| 2026-04-22 21:03 | 34.83265 | -86.93455 | 2961 ft | 172 kts | 5° |
| 2026-04-22 21:03 | 34.84323 | -86.92787 | 2979 ft | 182 kts | 51° |
| 2026-04-22 21:03 | 34.84730 | -86.91336 | 2980 ft | 182 kts | 88° |
| 2026-04-22 21:04 | 34.84766 | -86.89834 | 2983 ft | 176 kts | 90° |
| 2026-04-22 21:04 | 34.84793 | -86.88355 | 2973 ft | 170 kts | 91° |
| 2026-04-22 21:04 | 34.84812 | -86.86966 | 2955 ft | 162 kts | 91° |
| 2026-04-22 21:04 | 34.84837 | -86.85648 | 2954 ft | 152 kts | 91° |
| 2026-04-22 21:05 | 34.84859 | -86.84343 | 2993 ft | 163 kts | 91° |
| 2026-04-22 21:05 | 34.84886 | -86.83003 | 2987 ft | 151 kts | 90° |
| 2026-04-22 21:05 | 34.84777 | -86.81794 | 2952 ft | 137 kts | 125° |
| 2026-04-22 21:05 | 34.84061 | -86.81027 | 2996 ft | 142 kts | 148° |
| 2026-04-22 21:06 | 34.83291 | -86.80307 | 2984 ft | 138 kts | 146° |
| 2026-04-22 21:06 | 34.82527 | -86.79594 | 2986 ft | 139 kts | 147° |
| 2026-04-22 21:06 | 34.81760 | -86.78881 | 2981 ft | 138 kts | 147° |
| 2026-04-22 21:06 | 34.81001 | -86.78177 | 2976 ft | 138 kts | 147° |
| 2026-04-22 21:07 | 34.80238 | -86.77468 | 2972 ft | 138 kts | 147° |
| 2026-04-22 21:07 | 34.79486 | -86.76772 | 2975 ft | 136 kts | 148° |
| 2026-04-22 21:07 | 34.78610 | -86.76420 | 2979 ft | 135 kts | 181° |
| 2026-04-22 21:07 | 34.77687 | -86.76366 | 2974 ft | 131 kts | 181° |
| 2026-04-22 21:08 | 34.76762 | -86.76344 | 2858 ft | 138 kts | 183° |
| 2026-04-22 21:08 | 34.75826 | -86.76341 | 2679 ft | 133 kts | 183° |
| 2026-04-22 21:08 | 34.74918 | -86.76343 | 2512 ft | 129 kts | 184° |
| 2026-04-22 21:08 | 34.74016 | -86.76368 | 2338 ft | 130 kts | 183° |
| 2026-04-22 21:09 | 34.73114 | -86.76391 | 2168 ft | 128 kts | 185° |
| 2026-04-22 21:09 | 34.72214 | -86.76406 | 2003 ft | 131 kts | 183° |
| 2026-04-22 21:09 | 34.71316 | -86.76426 | 1835 ft | 129 kts | 183° |
| 2026-04-22 21:09 | 34.70409 | -86.76440 | 1655 ft | 132 kts | 184° |
| 2026-04-22 21:10 | 34.69485 | -86.76459 | 1465 ft | 132 kts | 184° |
| 2026-04-22 21:10 | 34.68579 | -86.76481 | 1294 ft | 129 kts | 183° |
| 2026-04-22 21:10 | 34.67678 | -86.76499 | 1115 ft | 130 kts | 182° |
| 2026-04-22 21:10 | 34.66795 | -86.76516 | 945 ft | 124 kts | 181° |
| 2026-04-22 21:11 | 34.65952 | -86.76532 | 788 ft | 122 kts | 181° |
| 2026-04-22 21:11 | 34.65108 | -86.76547 | 656 ft | 118 kts | 180° |
| 2026-04-22 21:11 | 34.64388 | -86.76559 | 605 ft | 84 kts | 181° |
| 2026-04-22 21:11 | 34.64004 | -86.76566 | 600 ft | 32 kts | 180° |
| 2026-04-22 21:12 | 34.63789 | -86.76574 | 599 ft | 30 kts | 183° |
| 2026-04-22 21:12 | 34.63701 | -86.76649 | 601 ft | 14 kts | 261° |
| 2026-04-22 21:12 | 34.63762 | -86.76727 | 601 ft | 16 kts | 352° |
| 2026-04-22 21:12 | 34.63884 | -86.76730 | 600 ft | 20 kts | 2° |
| 2026-04-22 21:13 | 34.64032 | -86.76723 | 597 ft | 21 kts | 360° |
| 2026-04-22 21:13 | 34.64179 | -86.76721 | 601 ft | 21 kts | 1° |
| 2026-04-22 21:13 | 34.64326 | -86.76717 | 602 ft | 22 kts | 1° |
| 2026-04-22 21:13 | 34.64474 | -86.76714 | 617 ft | 21 kts | 1° |
| 2026-04-22 21:14 | 34.64620 | -86.76712 | 617 ft | 21 kts | 0° |
| 2026-04-22 21:14 | 34.64764 | -86.76711 | 612 ft | 17 kts | 0° |
| 2026-04-22 21:14 | 34.64832 | -86.76766 | 613 ft | 14 kts | 282° |
| 2026-04-22 21:14 | 34.64835 | -86.76884 | 616 ft | 11 kts | 268° |
| 2026-04-22 21:15 | 34.64865 | -86.76962 | 613 ft | 11 kts | 339° |
| 2026-04-22 21:15 | 34.64904 | -86.76951 | 616 ft | 0 kts | 97° |